createdAt,value
2023-03-23T15:58:05.820Z,84.20
2023-03-23T16:00:32.956Z,83.90
2023-03-23T16:03:01.556Z,84.30
2023-03-23T16:05:28.705Z,83.80
2023-03-23T16:07:55.826Z,83.60
2023-03-23T16:10:23.527Z,83.60
2023-03-23T16:12:50.528Z,83.60
2023-03-23T16:15:17.676Z,83.70
2023-03-23T16:17:44.789Z,84.00
2023-03-23T16:20:15.914Z,83.50
2023-03-23T16:22:42.877Z,83.30
2023-03-23T16:25:10.361Z,83.80
2023-03-23T16:27:37.970Z,83.70
2023-03-23T16:30:16.993Z,83.80
2023-03-23T16:32:43.968Z,83.50
2023-03-23T16:35:11.236Z,83.60
2023-03-23T16:37:38.209Z,83.50
2023-03-23T16:40:06.173Z,83.80
2023-03-23T16:42:33.188Z,83.30
2023-03-23T16:45:00.166Z,83.10
2023-03-23T16:47:27.195Z,82.90
2023-03-23T16:49:54.159Z,83.10
2023-03-23T16:52:21.603Z,83.20
2023-03-23T16:54:48.526Z,83.10
2023-03-23T16:57:16.589Z,82.90
2023-03-23T16:59:43.873Z,82.50
2023-03-23T17:02:11.328Z,82.80
2023-03-23T17:04:42.497Z,82.90
2023-03-23T17:07:09.422Z,82.80
2023-03-23T17:09:36.377Z,82.60
2023-03-23T17:12:03.417Z,82.40
2023-03-23T17:14:30.341Z,82.40
2023-03-23T17:16:57.334Z,82.70
2023-03-23T17:19:24.291Z,82.60
2023-03-23T17:21:51.602Z,82.30
2023-03-23T17:24:18.731Z,82.60
2023-03-23T17:26:45.876Z,82.30
2023-03-23T17:29:12.830Z,82.00
2023-03-23T17:31:41.535Z,81.90
2023-03-23T17:34:08.470Z,81.60
2023-03-23T17:36:35.613Z,81.40
2023-03-23T17:39:02.973Z,81.80
2023-03-23T17:41:29.955Z,81.90
2023-03-23T17:43:56.917Z,81.70
2023-03-23T17:46:24.541Z,81.40
2023-03-23T17:48:51.723Z,82.00
2023-03-23T17:51:18.946Z,81.70
2023-03-23T17:53:45.886Z,81.70
2023-03-23T17:56:12.809Z,81.20
2023-03-23T17:58:39.987Z,81.70
2023-03-23T18:01:07.035Z,81.50
2023-03-23T18:03:34.943Z,80.90
2023-03-23T18:06:03.507Z,81.30
2023-03-23T18:08:30.889Z,80.80
2023-03-23T18:10:58.130Z,81.10
2023-03-23T18:13:28.732Z,81.40
2023-03-23T18:15:56.271Z,80.90
2023-03-23T18:18:23.863Z,81.00
2023-03-23T18:20:54.419Z,81.40
2023-03-23T18:23:21.306Z,81.00
2023-03-23T18:25:48.884Z,81.20
2023-03-23T18:28:17.133Z,81.10
2023-03-23T18:30:49.136Z,81.00
2023-03-23T18:33:17.760Z,81.10
2023-03-23T18:35:46.513Z,81.20
2023-03-23T18:38:14.045Z,82.10
2023-03-23T18:40:44.702Z,81.00
2023-03-23T18:43:12.011Z,81.40
2023-03-23T18:45:39.369Z,81.60
2023-03-23T18:48:07.321Z,82.40
2023-03-23T18:50:34.279Z,82.30
2023-03-23T18:53:01.216Z,82.40
2023-03-23T18:55:28.233Z,82.70
2023-03-23T18:57:55.525Z,82.70
2023-03-23T19:00:22.478Z,82.50
2023-03-23T19:02:52.034Z,82.50
2023-03-23T19:05:19.643Z,82.80
2023-03-23T19:07:46.568Z,82.40
2023-03-23T19:10:13.517Z,82.30
2023-03-23T19:12:40.476Z,82.20
2023-03-23T19:15:07.715Z,82.00
2023-03-23T19:17:36.013Z,82.60
2023-03-23T19:20:03.196Z,82.10
2023-03-23T19:22:30.123Z,82.40
2023-03-23T19:24:57.045Z,82.60
2023-03-23T19:27:23.931Z,83.00
2023-03-23T19:29:50.809Z,82.80
2023-03-23T19:32:17.817Z,82.90
2023-03-23T19:34:50.427Z,82.80
2023-03-23T19:37:17.815Z,82.50
2023-03-23T19:39:44.788Z,82.60
2023-03-23T19:42:11.858Z,82.80
2023-03-23T19:44:38.928Z,82.40
2023-03-23T19:47:07.207Z,82.30
2023-03-23T19:49:34.509Z,82.90
2023-03-23T19:52:07.252Z,82.40
2023-03-23T19:54:37.528Z,81.50
2023-03-23T19:57:05.665Z,82.00
2023-03-23T19:59:32.568Z,81.70
2023-03-23T20:01:59.513Z,81.90
2023-03-23T20:04:27.213Z,81.90
2023-03-23T20:06:56.354Z,81.90
2023-03-23T20:09:25.352Z,82.50
2023-03-23T20:11:53.573Z,82.30
2023-03-23T20:14:20.775Z,82.90
2023-03-23T20:16:48.090Z,82.50
2023-03-23T20:19:15.213Z,82.60
2023-03-23T20:21:42.179Z,82.90
2023-03-23T20:24:09.091Z,82.70
2023-03-23T20:26:38.049Z,82.80
2023-03-23T20:29:05.151Z,83.10
2023-03-23T20:31:36.442Z,83.60
2023-03-23T20:34:06.126Z,83.40
2023-03-23T20:36:35.772Z,83.50
2023-03-23T20:39:08.080Z,83.70
2023-03-23T20:41:38.811Z,83.50
2023-03-23T20:44:07.007Z,83.50
2023-03-23T20:46:34.547Z,83.30
2023-03-23T20:49:05.187Z,83.80
2023-03-23T20:51:33.398Z,83.90
2023-03-23T20:54:01.857Z,83.90
2023-03-23T20:56:28.933Z,84.40
2023-03-23T20:58:56.024Z,84.70
2023-03-23T21:01:23.041Z,84.90
2023-03-23T21:03:53.929Z,85.20
2023-03-23T21:06:21.036Z,84.90
2023-03-23T21:08:48.544Z,84.80
2023-03-23T21:11:19.524Z,84.80
2023-03-23T21:13:46.794Z,85.10
2023-03-23T21:16:13.821Z,85.30
2023-03-23T21:18:41.789Z,85.30
2023-03-23T21:21:11.152Z,85.30
2023-03-23T21:23:38.803Z,85.50
2023-03-23T21:26:08.074Z,85.90
2023-03-23T21:28:35.115Z,85.70
2023-03-23T21:31:03.315Z,85.70
2023-03-23T21:33:30.737Z,85.50
2023-03-23T21:35:57.917Z,85.80
2023-03-23T21:38:27.883Z,86.00
2023-03-23T21:40:55.689Z,86.00
2023-03-23T21:43:27.373Z,86.00
2023-03-23T21:45:59.098Z,85.70
2023-03-23T21:48:26.813Z,85.90
2023-03-23T21:50:53.989Z,85.90
2023-03-23T21:53:21.271Z,85.90
2023-03-23T21:55:51.748Z,85.90
2023-03-23T21:58:19.693Z,85.90
2023-03-23T22:00:47.160Z,86.40
2023-03-23T22:03:16.075Z,86.60
2023-03-23T22:05:43.198Z,87.10
2023-03-23T22:08:10.563Z,87.10
2023-03-23T22:10:43.660Z,87.10
2023-03-23T22:13:31.805Z,87.30
2023-03-23T22:16:00.790Z,87.00
2023-03-23T22:18:28.166Z,87.30
2023-03-23T22:20:55.196Z,87.40
2023-03-23T22:23:22.311Z,87.30
2023-03-23T22:25:49.258Z,87.40
2023-03-23T22:28:17.423Z,87.20
2023-03-23T22:30:44.627Z,87.60
2023-03-23T22:33:11.885Z,87.40
2023-03-23T22:35:38.966Z,87.50
2023-03-23T22:38:05.944Z,88.20
2023-03-23T22:40:33.045Z,87.70
2023-03-23T22:43:00.162Z,87.80
2023-03-23T22:45:27.928Z,87.80
2023-03-23T22:47:55.273Z,87.90
2023-03-23T22:50:24.080Z,88.00
2023-03-23T22:52:51.192Z,88.00
2023-03-23T22:55:18.182Z,88.30
2023-03-23T22:57:45.702Z,88.60
2023-03-23T23:00:15.723Z,88.70
2023-03-23T23:02:43.178Z,88.90
2023-03-23T23:05:10.860Z,88.90
2023-03-23T23:07:38.254Z,88.90
2023-03-23T23:10:05.585Z,89.10
2023-03-23T23:12:34.906Z,89.10
2023-03-23T23:15:04.438Z,89.40
2023-03-23T23:17:31.877Z,89.50
2023-03-23T23:19:59.797Z,89.70
2023-03-23T23:22:26.877Z,90.00
2023-03-23T23:24:54.337Z,90.20
2023-03-23T23:27:21.381Z,90.40
2023-03-23T23:29:48.821Z,90.60
2023-03-23T23:32:16.150Z,90.80
2023-03-23T23:34:43.103Z,91.10
2023-03-23T23:37:10.348Z,91.10
2023-03-23T23:39:38.262Z,91.00
2023-03-23T23:42:05.937Z,91.20
2023-03-23T23:44:33.058Z,91.40
2023-03-23T23:47:00.252Z,91.60
2023-03-23T23:49:31.813Z,91.70
2023-03-23T23:51:58.899Z,91.80
2023-03-23T23:54:30.057Z,91.80
2023-03-23T23:56:58.289Z,91.80
2023-03-23T23:59:25.783Z,92.00
